IBET216 GCFV-LEGR
Flight info
| Callsign | IBET216 |
|---|---|
| Flight time | N/A |
| Altitude | 34000 |
| Route | KORAL UG5 SONSO UN871 ADUBI N871 VJF L27 MAR |
| Aircraft | B738/M-SDE2E3FGHIRWXY/LB1 |
Departure
| Time | 2026-05-01 08:22 |
|---|---|
| Airport | Fuerteventura Airport (GCFV) |
Arrival
| Time | N/A |
|---|---|
| Airport | F.G.L. Airport Granada-Jaén Airport (LEGR) |
| Time | Latitude | Longitude | Altitude | Speed | Heading |
|---|---|---|---|---|---|
| 2026-05-01 08:05 | 28.45085 | -13.86821 | 31 ft | 0 kts | 271° |
| 2026-05-01 08:11 | 28.45085 | -13.86811 | 31 ft | 2 kts | 263° |
| 2026-05-01 08:12 | 28.45095 | -13.86780 | 31 ft | 2 kts | 233° |
| 2026-05-01 08:12 | 28.45106 | -13.86767 | 31 ft | 2 kts | 219° |
| 2026-05-01 08:12 | 28.45132 | -13.86752 | 31 ft | 2 kts | 190° |
| 2026-05-01 08:13 | 28.45146 | -13.86751 | 31 ft | 0 kts | 179° |
| 2026-05-01 08:13 | 28.45147 | -13.86751 | 31 ft | 0 kts | 179° |
| 2026-05-01 08:16 | 28.45057 | -13.86745 | 31 ft | 22 kts | 179° |
| 2026-05-01 08:16 | 28.44924 | -13.86748 | 31 ft | 18 kts | 181° |
| 2026-05-01 08:16 | 28.44855 | -13.86662 | 31 ft | 12 kts | 94° |
| 2026-05-01 08:17 | 28.44786 | -13.86586 | 31 ft | 11 kts | 180° |
| 2026-05-01 08:17 | 28.44728 | -13.86587 | 31 ft | 12 kts | 181° |
| 2026-05-01 08:17 | 28.44631 | -13.86590 | 31 ft | 14 kts | 182° |
| 2026-05-01 08:17 | 28.44516 | -13.86595 | 31 ft | 19 kts | 181° |
| 2026-05-01 08:18 | 28.44360 | -13.86599 | 31 ft | 24 kts | 181° |
| 2026-05-01 08:18 | 28.43967 | -13.86611 | 31 ft | 29 kts | 182° |
| 2026-05-01 08:19 | 28.43499 | -13.86628 | 31 ft | 28 kts | 181° |
| 2026-05-01 08:19 | 28.43396 | -13.86633 | 31 ft | 12 kts | 183° |
| 2026-05-01 08:19 | 28.43316 | -13.86612 | 31 ft | 11 kts | 127° |
| 2026-05-01 08:19 | 28.43305 | -13.86574 | 31 ft | 0 kts | 99° |
| 2026-05-01 08:20 | 28.43304 | -13.86564 | 31 ft | 6 kts | 97° |
| 2026-05-01 08:21 | 28.43301 | -13.86493 | 31 ft | 9 kts | 86° |
| 2026-05-01 08:21 | 28.43339 | -13.86446 | 31 ft | 8 kts | 11° |
| 2026-05-01 08:21 | 28.43431 | -13.86438 | 31 ft | 32 kts | 2° |
| 2026-05-01 08:21 | 28.44003 | -13.86419 | 31 ft | 127 kts | 2° |
| 2026-05-01 08:22 | 28.45103 | -13.86378 | 427 ft | 173 kts | 2° |
| 2026-05-01 08:22 | 28.46257 | -13.86355 | 1487 ft | 166 kts | 4° |
| 2026-05-01 08:22 | 28.47389 | -13.86194 | 2042 ft | 175 kts | 25° |
| 2026-05-01 08:22 | 28.48237 | -13.85188 | 2482 ft | 191 kts | 63° |
| 2026-05-01 08:23 | 28.48923 | -13.83822 | 2990 ft | 206 kts | 44° |
| 2026-05-01 08:23 | 28.50197 | -13.83001 | 3461 ft | 224 kts | 18° |
| 2026-05-01 08:23 | 28.51748 | -13.82451 | 4022 ft | 241 kts | 19° |
| 2026-05-01 08:23 | 28.53351 | -13.81754 | 4633 ft | 255 kts | 23° |
| 2026-05-01 08:24 | 28.54993 | -13.80909 | 5317 ft | 266 kts | 25° |
| 2026-05-01 08:24 | 28.56696 | -13.79982 | 6054 ft | 274 kts | 25° |
| 2026-05-01 08:24 | 28.58420 | -13.79035 | 6813 ft | 280 kts | 24° |
| 2026-05-01 08:24 | 28.60185 | -13.78074 | 7542 ft | 286 kts | 24° |
| 2026-05-01 08:25 | 28.61993 | -13.77095 | 8294 ft | 292 kts | 24° |
| 2026-05-01 08:25 | 28.63859 | -13.76089 | 9022 ft | 298 kts | 24° |
| 2026-05-01 08:25 | 28.65748 | -13.75070 | 9708 ft | 304 kts | 24° |
| 2026-05-01 08:25 | 28.67672 | -13.74033 | 10422 ft | 309 kts | 23° |
| 2026-05-01 08:26 | 28.69660 | -13.72969 | 10861 ft | 324 kts | 23° |
| 2026-05-01 08:26 | 28.71755 | -13.71884 | 11284 ft | 340 kts | 22° |
| 2026-05-01 08:26 | 28.73948 | -13.70774 | 11844 ft | 350 kts | 21° |
| 2026-05-01 08:26 | 28.76175 | -13.69650 | 12578 ft | 354 kts | 21° |
| 2026-05-01 08:27 | 28.78451 | -13.68500 | 13231 ft | 361 kts | 21° |
| 2026-05-01 08:27 | 28.80771 | -13.67323 | 13962 ft | 365 kts | 21° |
| 2026-05-01 08:27 | 28.83095 | -13.66140 | 14703 ft | 369 kts | 21° |
| 2026-05-01 08:27 | 28.85449 | -13.64940 | 15428 ft | 374 kts | 21° |
| 2026-05-01 08:28 | 28.87821 | -13.63731 | 16167 ft | 377 kts | 21° |
| 2026-05-01 08:28 | 28.90241 | -13.62496 | 16876 ft | 382 kts | 21° |
| 2026-05-01 08:28 | 28.92667 | -13.61256 | 17568 ft | 386 kts | 21° |
| 2026-05-01 08:28 | 28.95123 | -13.60004 | 18266 ft | 390 kts | 20° |
| 2026-05-01 08:29 | 28.97656 | -13.58822 | 18917 ft | 394 kts | 17° |
| 2026-05-01 08:29 | 29.00240 | -13.57738 | 19590 ft | 397 kts | 16° |
| 2026-05-01 08:29 | 29.02873 | -13.56679 | 20227 ft | 402 kts | 15° |
| 2026-05-01 08:29 | 29.05515 | -13.55623 | 20862 ft | 406 kts | 15° |
| 2026-05-01 08:30 | 29.08191 | -13.54546 | 21492 ft | 410 kts | 15° |
| 2026-05-01 08:30 | 29.10888 | -13.53449 | 22062 ft | 415 kts | 16° |
| 2026-05-01 08:30 | 29.13573 | -13.52224 | 22623 ft | 421 kts | 21° |
| 2026-05-01 08:30 | 29.16161 | -13.50573 | 23192 ft | 428 kts | 31° |
| 2026-05-01 08:31 | 29.18467 | -13.48452 | 23759 ft | 433 kts | 42° |
| 2026-05-01 08:31 | 29.20512 | -13.45870 | 24120 ft | 439 kts | 50° |
| 2026-05-01 08:31 | 29.22319 | -13.43042 | 24139 ft | 440 kts | 55° |
| 2026-05-01 08:31 | 29.23983 | -13.40146 | 24139 ft | 435 kts | 56° |
| 2026-05-01 08:32 | 29.25607 | -13.37234 | 24140 ft | 436 kts | 57° |
| 2026-05-01 08:32 | 29.27235 | -13.34319 | 24139 ft | 438 kts | 57° |
| 2026-05-01 08:32 | 29.28906 | -13.31373 | 24139 ft | 437 kts | 56° |
| 2026-05-01 08:32 | 29.30561 | -13.28514 | 24140 ft | 436 kts | 56° |
| 2026-05-01 08:33 | 29.32267 | -13.25611 | 24139 ft | 436 kts | 55° |
| 2026-05-01 08:33 | 29.33968 | -13.22754 | 24138 ft | 437 kts | 54° |
| 2026-05-01 08:33 | 29.35705 | -13.19859 | 24140 ft | 436 kts | 54° |
| 2026-05-01 08:33 | 29.37413 | -13.17029 | 24141 ft | 436 kts | 54° |
| 2026-05-01 08:34 | 29.39135 | -13.14185 | 24141 ft | 437 kts | 54° |
| 2026-05-01 08:34 | 29.40869 | -13.11326 | 24140 ft | 436 kts | 54° |
| 2026-05-01 08:34 | 29.42605 | -13.08466 | 24141 ft | 437 kts | 54° |
| 2026-05-01 08:34 | 29.44339 | -13.05611 | 24140 ft | 437 kts | 54° |
| 2026-05-01 08:35 | 29.46077 | -13.02746 | 24140 ft | 436 kts | 54° |
| 2026-05-01 08:35 | 29.47811 | -12.99887 | 24166 ft | 441 kts | 54° |
| 2026-05-01 08:35 | 29.49578 | -12.96971 | 24736 ft | 442 kts | 54° |
| 2026-05-01 08:35 | 29.51318 | -12.94097 | 25383 ft | 442 kts | 54° |
| 2026-05-01 08:36 | 29.53068 | -12.91205 | 25916 ft | 444 kts | 54° |
| 2026-05-01 08:36 | 29.54842 | -12.88273 | 26388 ft | 448 kts | 53° |
| 2026-05-01 08:36 | 29.56618 | -12.85336 | 26878 ft | 451 kts | 53° |
| 2026-05-01 08:36 | 29.58389 | -12.82405 | 27352 ft | 453 kts | 53° |
| 2026-05-01 08:37 | 29.60182 | -12.79435 | 27838 ft | 455 kts | 53° |
| 2026-05-01 08:37 | 29.61984 | -12.76448 | 28264 ft | 458 kts | 53° |
| 2026-05-01 08:37 | 29.63824 | -12.73395 | 28714 ft | 461 kts | 53° |
| 2026-05-01 08:37 | 29.65650 | -12.70363 | 29159 ft | 463 kts | 53° |
| 2026-05-01 08:38 | 29.67471 | -12.67337 | 29631 ft | 465 kts | 53° |
| 2026-05-01 08:38 | 29.69324 | -12.64255 | 29994 ft | 469 kts | 53° |
| 2026-05-01 08:38 | 29.71168 | -12.61188 | 30392 ft | 472 kts | 53° |
| 2026-05-01 08:38 | 29.73039 | -12.58072 | 30842 ft | 473 kts | 53° |
| 2026-05-01 08:39 | 29.74889 | -12.54979 | 31181 ft | 477 kts | 53° |
| 2026-05-01 08:39 | 29.76777 | -12.51802 | 31565 ft | 480 kts | 53° |
| 2026-05-01 08:39 | 29.78659 | -12.48621 | 31931 ft | 482 kts | 53° |
| 2026-05-01 08:39 | 29.80519 | -12.45469 | 32300 ft | 485 kts | 54° |
| 2026-05-01 08:40 | 29.84332 | -12.38998 | 33069 ft | 489 kts | 53° |
| 2026-05-01 08:40 | 29.86237 | -12.35764 | 33386 ft | 491 kts | 53° |
| 2026-05-01 08:40 | 29.88143 | -12.32525 | 33909 ft | 490 kts | 54° |
| 2026-05-01 08:41 | 29.90047 | -12.29288 | 34505 ft | 487 kts | 54° |
| 2026-05-01 08:41 | 29.91924 | -12.26095 | 34966 ft | 486 kts | 54° |
| 2026-05-01 08:41 | 29.93817 | -12.22874 | 35439 ft | 485 kts | 54° |
| 2026-05-01 08:41 | 29.95707 | -12.19655 | 35852 ft | 485 kts | 54° |
| 2026-05-01 08:42 | 29.97570 | -12.16480 | 36255 ft | 484 kts | 54° |
| 2026-05-01 08:42 | 29.99509 | -12.13287 | 36665 ft | 483 kts | 51° |
| 2026-05-01 08:42 | 30.01570 | -12.10260 | 37000 ft | 482 kts | 46° |
| 2026-05-01 08:42 | 30.03871 | -12.07475 | 37367 ft | 479 kts | 40° |
| 2026-05-01 08:43 | 30.06347 | -12.04928 | 37740 ft | 477 kts | 36° |
| 2026-05-01 08:43 | 30.08941 | -12.02523 | 38074 ft | 476 kts | 34° |
| 2026-05-01 08:43 | 30.14256 | -11.97906 | 38135 ft | 478 kts | 33° |
| 2026-05-01 08:44 | 30.19538 | -11.93321 | 38138 ft | 476 kts | 33° |
| 2026-05-01 08:44 | 30.24785 | -11.88646 | 38134 ft | 477 kts | 34° |
| 2026-05-01 08:45 | 30.29989 | -11.83922 | 38140 ft | 476 kts | 34° |
| 2026-05-01 08:45 | 30.35185 | -11.79161 | 38138 ft | 476 kts | 34° |
| 2026-05-01 08:46 | 30.40380 | -11.74384 | 38139 ft | 477 kts | 35° |
| 2026-05-01 08:46 | 30.45585 | -11.69587 | 38134 ft | 476 kts | 34° |
| 2026-05-01 08:47 | 30.50760 | -11.64811 | 38139 ft | 476 kts | 35° |
| 2026-05-01 08:47 | 30.55922 | -11.60042 | 38138 ft | 477 kts | 35° |
| 2026-05-01 08:48 | 30.61091 | -11.55259 | 38140 ft | 477 kts | 34° |
| 2026-05-01 08:48 | 30.66282 | -11.50450 | 38143 ft | 476 kts | 34° |
| 2026-05-01 08:49 | 30.71441 | -11.45664 | 38142 ft | 476 kts | 34° |
| 2026-05-01 08:49 | 30.76636 | -11.40837 | 38143 ft | 477 kts | 34° |
| 2026-05-01 08:50 | 30.81820 | -11.36015 | 38141 ft | 478 kts | 34° |
| 2026-05-01 08:50 | 30.86969 | -11.31218 | 38139 ft | 478 kts | 35° |
| 2026-05-01 08:51 | 30.92153 | -11.26380 | 38144 ft | 478 kts | 35° |
| 2026-05-01 08:51 | 30.97341 | -11.21531 | 38137 ft | 477 kts | 35° |
| 2026-05-01 08:52 | 31.02522 | -11.16683 | 38137 ft | 477 kts | 35° |
| 2026-05-01 08:52 | 31.07699 | -11.11835 | 38133 ft | 478 kts | 35° |
| 2026-05-01 08:53 | 31.12876 | -11.06977 | 38135 ft | 477 kts | 35° |
| 2026-05-01 08:53 | 31.18021 | -11.02141 | 38135 ft | 476 kts | 35° |
| 2026-05-01 08:54 | 31.23173 | -10.97292 | 38134 ft | 478 kts | 35° |
| 2026-05-01 08:54 | 31.28354 | -10.92409 | 38132 ft | 478 kts | 35° |
| 2026-05-01 08:55 | 31.33549 | -10.87505 | 38137 ft | 479 kts | 35° |
| 2026-05-01 08:55 | 31.38725 | -10.82612 | 38138 ft | 479 kts | 35° |
| 2026-05-01 08:56 | 31.43914 | -10.77700 | 38139 ft | 479 kts | 34° |
| 2026-05-01 08:56 | 31.49062 | -10.72818 | 38136 ft | 478 kts | 34° |
| 2026-05-01 08:57 | 31.54239 | -10.67905 | 38136 ft | 480 kts | 34° |
| 2026-05-01 08:57 | 31.59407 | -10.62992 | 38137 ft | 478 kts | 34° |
| 2026-05-01 08:58 | 31.64564 | -10.58081 | 38137 ft | 479 kts | 34° |
| 2026-05-01 08:58 | 31.69740 | -10.53147 | 38138 ft | 480 kts | 35° |
| 2026-05-01 08:59 | 31.74934 | -10.48186 | 38137 ft | 480 kts | 34° |
| 2026-05-01 08:59 | 31.80104 | -10.43241 | 38134 ft | 480 kts | 34° |
| 2026-05-01 09:00 | 31.85293 | -10.38271 | 38132 ft | 481 kts | 34° |
| 2026-05-01 09:00 | 31.90445 | -10.33331 | 38140 ft | 481 kts | 35° |
| 2026-05-01 09:01 | 31.95639 | -10.28341 | 38137 ft | 482 kts | 35° |
| 2026-05-01 09:01 | 32.00812 | -10.23364 | 38136 ft | 482 kts | 35° |
| 2026-05-01 09:02 | 32.06002 | -10.18365 | 38138 ft | 483 kts | 35° |
| 2026-05-01 09:02 | 32.11184 | -10.13363 | 38137 ft | 482 kts | 35° |
| 2026-05-01 09:03 | 32.16376 | -10.08344 | 38148 ft | 484 kts | 35° |
| 2026-05-01 09:03 | 32.21579 | -10.03309 | 38153 ft | 484 kts | 35° |
| 2026-05-01 09:04 | 32.26779 | -9.98267 | 38152 ft | 483 kts | 35° |
| 2026-05-01 09:04 | 32.31973 | -9.93224 | 38151 ft | 484 kts | 34° |
| 2026-05-01 09:05 | 32.37162 | -9.88178 | 38152 ft | 484 kts | 35° |
| 2026-05-01 09:05 | 32.42341 | -9.83135 | 38152 ft | 485 kts | 34° |
| 2026-05-01 09:06 | 32.47568 | -9.78039 | 38151 ft | 484 kts | 34° |
| 2026-05-01 09:06 | 32.52736 | -9.72990 | 38149 ft | 483 kts | 34° |
| 2026-05-01 09:07 | 32.57915 | -9.67922 | 38148 ft | 483 kts | 34° |
| 2026-05-01 09:07 | 32.63076 | -9.62863 | 38140 ft | 483 kts | 34° |
| 2026-05-01 09:08 | 32.68264 | -9.57773 | 38139 ft | 482 kts | 34° |
| 2026-05-01 09:08 | 32.73432 | -9.52694 | 38136 ft | 482 kts | 34° |
| 2026-05-01 09:09 | 32.78555 | -9.47650 | 38140 ft | 482 kts | 34° |
| 2026-05-01 09:09 | 32.83720 | -9.42557 | 38137 ft | 481 kts | 34° |
| 2026-05-01 09:10 | 32.88884 | -9.37460 | 38132 ft | 483 kts | 34° |
| 2026-05-01 09:10 | 32.94031 | -9.32368 | 38133 ft | 482 kts | 34° |
| 2026-05-01 09:11 | 32.99191 | -9.27257 | 38130 ft | 483 kts | 34° |
| 2026-05-01 09:11 | 33.04324 | -9.22164 | 38133 ft | 483 kts | 34° |
| 2026-05-01 09:12 | 33.09482 | -9.17039 | 38135 ft | 483 kts | 34° |
| 2026-05-01 09:12 | 33.14664 | -9.11882 | 38135 ft | 484 kts | 34° |
| 2026-05-01 09:13 | 33.19814 | -9.06749 | 38137 ft | 485 kts | 34° |
| 2026-05-01 09:13 | 33.24976 | -9.01594 | 38137 ft | 483 kts | 34° |
| 2026-05-01 09:14 | 33.30101 | -8.96468 | 38137 ft | 483 kts | 34° |
| 2026-05-01 09:14 | 33.35265 | -8.91297 | 38136 ft | 484 kts | 34° |
| 2026-05-01 09:15 | 33.40432 | -8.86114 | 38139 ft | 483 kts | 34° |
| 2026-05-01 09:15 | 33.45552 | -8.80969 | 38137 ft | 485 kts | 34° |
| 2026-05-01 09:16 | 33.50692 | -8.75795 | 38138 ft | 484 kts | 34° |
| 2026-05-01 09:17 | 33.58408 | -8.68014 | 38137 ft | 484 kts | 33° |
| 2026-05-01 09:17 | 33.66125 | -8.60212 | 38136 ft | 484 kts | 33° |
| 2026-05-01 09:18 | 33.73875 | -8.52361 | 38137 ft | 486 kts | 33° |
| 2026-05-01 09:19 | 33.81605 | -8.44510 | 38138 ft | 488 kts | 33° |
| 2026-05-01 09:20 | 33.89329 | -8.36645 | 38139 ft | 486 kts | 33° |
| 2026-05-01 09:21 | 33.99661 | -8.26094 | 38137 ft | 488 kts | 34° |
| 2026-05-01 09:21 | 34.07431 | -8.18136 | 38135 ft | 488 kts | 34° |
| 2026-05-01 09:22 | 34.17748 | -8.07537 | 38134 ft | 488 kts | 33° |
| 2026-05-01 09:23 | 34.25480 | -7.99575 | 38131 ft | 488 kts | 33° |
| 2026-05-01 09:24 | 34.33227 | -7.91576 | 38130 ft | 489 kts | 33° |
| 2026-05-01 09:25 | 34.43518 | -7.80913 | 38132 ft | 487 kts | 33° |
| 2026-05-01 09:26 | 34.51227 | -7.72908 | 38134 ft | 489 kts | 33° |
| 2026-05-01 09:26 | 34.58957 | -7.64856 | 38137 ft | 486 kts | 33° |
| 2026-05-01 09:27 | 34.66657 | -7.56820 | 38137 ft | 489 kts | 33° |
| 2026-05-01 09:28 | 34.71779 | -7.51462 | 38140 ft | 486 kts | 33° |
| 2026-05-01 09:28 | 34.76888 | -7.46107 | 38142 ft | 486 kts | 33° |
| 2026-05-01 09:29 | 34.84573 | -7.38035 | 38143 ft | 485 kts | 33° |
| 2026-05-01 09:30 | 34.92243 | -7.29959 | 38151 ft | 488 kts | 33° |
| 2026-05-01 09:30 | 34.99891 | -7.21886 | 38153 ft | 485 kts | 33° |
| 2026-05-01 09:31 | 35.04977 | -7.16505 | 38154 ft | 485 kts | 33° |
| 2026-05-01 09:31 | 35.10045 | -7.11135 | 38014 ft | 486 kts | 33° |
| 2026-05-01 09:32 | 35.12619 | -7.08408 | 37591 ft | 486 kts | 33° |
| 2026-05-01 09:32 | 35.17654 | -7.03051 | 36880 ft | 478 kts | 33° |
| 2026-05-01 09:32 | 35.20172 | -7.00371 | 36529 ft | 480 kts | 33° |
| 2026-05-01 09:33 | 35.22678 | -6.97706 | 36179 ft | 483 kts | 33° |
| 2026-05-01 09:33 | 35.25205 | -6.95016 | 35827 ft | 483 kts | 34° |
| 2026-05-01 09:33 | 35.30283 | -6.89596 | 35118 ft | 484 kts | 34° |
| 2026-05-01 09:34 | 35.32799 | -6.86909 | 34771 ft | 483 kts | 34° |
| 2026-05-01 09:34 | 35.35327 | -6.84207 | 34437 ft | 484 kts | 34° |
| 2026-05-01 09:34 | 35.40420 | -6.78755 | 33774 ft | 484 kts | 34° |
| 2026-05-01 09:35 | 35.42941 | -6.76054 | 33458 ft | 485 kts | 34° |
| 2026-05-01 09:35 | 35.48044 | -6.70578 | 32828 ft | 485 kts | 34° |
| 2026-05-01 09:35 | 35.50603 | -6.67826 | 32511 ft | 484 kts | 34° |
| 2026-05-01 09:36 | 35.53131 | -6.65106 | 32194 ft | 485 kts | 34° |
| 2026-05-01 09:36 | 35.55652 | -6.62391 | 31880 ft | 484 kts | 34° |
| 2026-05-01 09:36 | 35.58208 | -6.59635 | 31564 ft | 484 kts | 34° |
| 2026-05-01 09:36 | 35.60720 | -6.56926 | 31256 ft | 484 kts | 34° |
| 2026-05-01 09:37 | 35.63245 | -6.54202 | 30943 ft | 484 kts | 34° |
| 2026-05-01 09:37 | 35.68310 | -6.48729 | 30328 ft | 482 kts | 34° |
| 2026-05-01 09:37 | 35.70789 | -6.46039 | 30073 ft | 471 kts | 34° |
| 2026-05-01 09:38 | 35.75613 | -6.40787 | 29551 ft | 453 kts | 34° |
| 2026-05-01 09:38 | 35.77965 | -6.38230 | 29302 ft | 452 kts | 34° |
| 2026-05-01 09:38 | 35.80324 | -6.35672 | 29042 ft | 453 kts | 34° |
| 2026-05-01 09:39 | 35.85153 | -6.30755 | 28529 ft | 445 kts | 30° |
| 2026-05-01 09:39 | 35.87651 | -6.28518 | 28273 ft | 440 kts | 29° |
| 2026-05-01 09:39 | 35.90174 | -6.26359 | 28017 ft | 438 kts | 28° |
| 2026-05-01 09:40 | 35.92695 | -6.24241 | 27763 ft | 437 kts | 28° |
| 2026-05-01 09:40 | 35.97702 | -6.20046 | 27253 ft | 434 kts | 28° |
| 2026-05-01 09:40 | 36.00179 | -6.17956 | 26999 ft | 434 kts | 28° |
| 2026-05-01 09:41 | 36.02668 | -6.15845 | 26745 ft | 432 kts | 29° |
| 2026-05-01 09:41 | 36.07590 | -6.11643 | 26230 ft | 428 kts | 29° |
| 2026-05-01 09:41 | 36.10018 | -6.09563 | 25976 ft | 427 kts | 29° |
| 2026-05-01 09:42 | 36.12465 | -6.07462 | 25722 ft | 425 kts | 29° |
| 2026-05-01 09:42 | 36.14871 | -6.05392 | 25467 ft | 424 kts | 29° |
| 2026-05-01 09:42 | 36.19708 | -6.01224 | 24958 ft | 420 kts | 30° |
| 2026-05-01 09:43 | 36.24132 | -5.96537 | 24451 ft | 427 kts | 45° |
| 2026-05-01 09:43 | 36.25948 | -5.93592 | 24179 ft | 426 kts | 52° |
| 2026-05-01 09:43 | 36.27539 | -5.90525 | 23913 ft | 425 kts | 55° |
| 2026-05-01 09:44 | 36.30485 | -5.84281 | 23383 ft | 418 kts | 57° |
| 2026-05-01 09:44 | 36.31923 | -5.81157 | 23107 ft | 413 kts | 57° |
| 2026-05-01 09:44 | 36.33334 | -5.78102 | 22838 ft | 411 kts | 57° |
| 2026-05-01 09:45 | 36.34753 | -5.75051 | 22574 ft | 410 kts | 57° |
| 2026-05-01 09:45 | 36.37614 | -5.68959 | 22047 ft | 406 kts | 56° |
| 2026-05-01 09:45 | 36.39020 | -5.65980 | 21782 ft | 404 kts | 56° |
| 2026-05-01 09:46 | 36.40442 | -5.62972 | 21523 ft | 402 kts | 56° |
| 2026-05-01 09:46 | 36.41858 | -5.59983 | 21263 ft | 399 kts | 57° |
| 2026-05-01 09:46 | 36.43261 | -5.57020 | 20999 ft | 397 kts | 57° |
| 2026-05-01 09:46 | 36.44653 | -5.54073 | 20740 ft | 396 kts | 57° |
| 2026-05-01 09:47 | 36.46035 | -5.51148 | 20477 ft | 395 kts | 57° |
| 2026-05-01 09:47 | 36.47421 | -5.48214 | 20226 ft | 392 kts | 57° |
| 2026-05-01 09:47 | 36.48797 | -5.45299 | 20157 ft | 396 kts | 57° |
| 2026-05-01 09:47 | 36.50161 | -5.42267 | 20143 ft | 401 kts | 60° |
| 2026-05-01 09:48 | 36.51325 | -5.39160 | 20148 ft | 400 kts | 65° |
| 2026-05-01 09:48 | 36.52353 | -5.35971 | 20147 ft | 401 kts | 67° |
| 2026-05-01 09:48 | 36.53326 | -5.32722 | 20149 ft | 402 kts | 69° |
| 2026-05-01 09:48 | 36.54279 | -5.29455 | 20150 ft | 402 kts | 69° |
| 2026-05-01 09:49 | 36.55234 | -5.26175 | 20151 ft | 401 kts | 69° |
| 2026-05-01 09:49 | 36.56182 | -5.22926 | 20152 ft | 402 kts | 69° |
| 2026-05-01 09:49 | 36.57146 | -5.19646 | 20142 ft | 403 kts | 68° |
| 2026-05-01 09:49 | 36.58108 | -5.16380 | 20138 ft | 402 kts | 68° |
| 2026-05-01 09:50 | 36.59055 | -5.13174 | 20147 ft | 401 kts | 68° |
| 2026-05-01 09:50 | 36.60022 | -5.09906 | 20140 ft | 400 kts | 68° |
| 2026-05-01 09:50 | 36.60988 | -5.06640 | 20140 ft | 400 kts | 68° |
| 2026-05-01 09:50 | 36.61935 | -5.03437 | 20148 ft | 399 kts | 68° |
| 2026-05-01 09:51 | 36.62902 | -5.00175 | 20149 ft | 401 kts | 68° |
| 2026-05-01 09:51 | 36.63875 | -4.96898 | 20142 ft | 401 kts | 68° |
| 2026-05-01 09:51 | 36.64836 | -4.93659 | 20144 ft | 400 kts | 68° |
| 2026-05-01 09:51 | 36.65791 | -4.90427 | 20136 ft | 400 kts | 68° |
| 2026-05-01 09:52 | 36.66743 | -4.87198 | 20142 ft | 400 kts | 68° |
| 2026-05-01 09:52 | 36.67705 | -4.83939 | 20152 ft | 401 kts | 68° |
| 2026-05-01 09:52 | 36.68658 | -4.80707 | 20145 ft | 399 kts | 68° |
| 2026-05-01 09:52 | 36.69609 | -4.77479 | 20139 ft | 400 kts | 68° |
| 2026-05-01 09:53 | 36.70566 | -4.74230 | 20143 ft | 400 kts | 68° |
| 2026-05-01 09:53 | 36.71531 | -4.70947 | 20138 ft | 400 kts | 68° |
| 2026-05-01 09:53 | 36.72482 | -4.67710 | 20139 ft | 400 kts | 68° |
| 2026-05-01 09:53 | 36.73434 | -4.64464 | 20139 ft | 399 kts | 68° |
| 2026-05-01 09:54 | 36.74389 | -4.61200 | 20139 ft | 400 kts | 68° |
| 2026-05-01 09:54 | 36.75331 | -4.57982 | 20140 ft | 399 kts | 68° |
| 2026-05-01 09:54 | 36.76291 | -4.54722 | 20138 ft | 400 kts | 67° |
| 2026-05-01 09:54 | 36.77397 | -4.51579 | 20135 ft | 397 kts | 60° |
| 2026-05-01 09:55 | 36.78928 | -4.48738 | 20129 ft | 394 kts | 46° |
| 2026-05-01 09:55 | 36.80902 | -4.46409 | 19939 ft | 391 kts | 34° |
| 2026-05-01 09:55 | 36.83163 | -4.44607 | 19687 ft | 384 kts | 25° |
| 2026-05-01 09:55 | 36.85573 | -4.43204 | 19444 ft | 378 kts | 17° |
| 2026-05-01 09:56 | 36.88081 | -4.42335 | 19185 ft | 373 kts | 5° |
| 2026-05-01 09:56 | 36.90665 | -4.42141 | 18940 ft | 369 kts | 354° |
| 2026-05-01 09:56 | 36.93191 | -4.42483 | 18698 ft | 365 kts | 346° |
| 2026-05-01 09:56 | 36.95660 | -4.43199 | 18457 ft | 362 kts | 340° |
| 2026-05-01 09:57 | 36.98039 | -4.44179 | 18218 ft | 358 kts | 336° |
| 2026-05-01 09:57 | 37.00370 | -4.45266 | 17973 ft | 358 kts | 335° |
| 2026-05-01 09:57 | 37.02674 | -4.46371 | 17715 ft | 357 kts | 335° |
| 2026-05-01 09:57 | 37.05011 | -4.47479 | 17459 ft | 355 kts | 336° |
| 2026-05-01 09:58 | 37.07311 | -4.48549 | 17212 ft | 354 kts | 336° |
| 2026-05-01 09:58 | 37.09621 | -4.49605 | 16962 ft | 353 kts | 337° |
| 2026-05-01 09:58 | 37.11914 | -4.50643 | 16721 ft | 352 kts | 337° |
| 2026-05-01 09:58 | 37.14232 | -4.51687 | 16459 ft | 351 kts | 337° |
| 2026-05-01 09:59 | 37.16537 | -4.52725 | 16198 ft | 349 kts | 337° |
| 2026-05-01 09:59 | 37.18800 | -4.53744 | 15943 ft | 348 kts | 337° |
| 2026-05-01 09:59 | 37.21094 | -4.54780 | 15689 ft | 347 kts | 337° |
| 2026-05-01 09:59 | 37.23360 | -4.55804 | 15437 ft | 346 kts | 337° |
| 2026-05-01 10:00 | 37.25623 | -4.56828 | 15192 ft | 346 kts | 337° |
| 2026-05-01 10:00 | 37.27868 | -4.57844 | 14955 ft | 345 kts | 337° |
| 2026-05-01 10:00 | 37.30106 | -4.58858 | 14697 ft | 343 kts | 337° |
| 2026-05-01 10:00 | 37.32367 | -4.59882 | 14449 ft | 342 kts | 338° |
| 2026-05-01 10:01 | 37.34611 | -4.60899 | 14200 ft | 342 kts | 337° |
| 2026-05-01 10:01 | 37.36839 | -4.61910 | 13956 ft | 340 kts | 338° |
| 2026-05-01 10:01 | 37.39060 | -4.62920 | 13715 ft | 340 kts | 338° |
| 2026-05-01 10:01 | 37.41273 | -4.63926 | 13466 ft | 339 kts | 338° |
| 2026-05-01 10:02 | 37.43484 | -4.64931 | 13215 ft | 337 kts | 338° |
| 2026-05-01 10:02 | 37.45678 | -4.65929 | 12974 ft | 336 kts | 338° |
| 2026-05-01 10:02 | 37.47865 | -4.66924 | 12732 ft | 335 kts | 338° |
| 2026-05-01 10:02 | 37.50077 | -4.67931 | 12479 ft | 334 kts | 338° |
| 2026-05-01 10:03 | 37.52252 | -4.68922 | 12238 ft | 334 kts | 338° |
| 2026-05-01 10:03 | 37.54435 | -4.69918 | 11996 ft | 333 kts | 338° |
| 2026-05-01 10:03 | 37.56599 | -4.70906 | 11763 ft | 333 kts | 338° |
| 2026-05-01 10:03 | 37.58776 | -4.71900 | 11517 ft | 332 kts | 338° |
| 2026-05-01 10:04 | 37.60967 | -4.72901 | 11261 ft | 331 kts | 338° |
| 2026-05-01 10:04 | 37.63126 | -4.73888 | 11016 ft | 330 kts | 338° |
| 2026-05-01 10:04 | 37.65284 | -4.74875 | 10782 ft | 330 kts | 338° |
| 2026-05-01 10:04 | 37.67438 | -4.75861 | 10548 ft | 330 kts | 338° |
| 2026-05-01 10:05 | 37.69603 | -4.76825 | 10312 ft | 328 kts | 341° |
| 2026-05-01 10:05 | 37.71828 | -4.77387 | 10138 ft | 322 kts | 357° |
| 2026-05-01 10:05 | 37.73975 | -4.76971 | 10130 ft | 306 kts | 19° |
| 2026-05-01 10:05 | 37.75778 | -4.75741 | 10115 ft | 290 kts | 36° |
| 2026-05-01 10:06 | 37.77317 | -4.74056 | 9901 ft | 291 kts | 46° |
| 2026-05-01 10:06 | 37.78463 | -4.71997 | 9660 ft | 286 kts | 66° |
| 2026-05-01 10:06 | 37.79001 | -4.69629 | 9412 ft | 284 kts | 84° |
| 2026-05-01 10:06 | 37.79067 | -4.67145 | 9166 ft | 282 kts | 95° |
| 2026-05-01 10:07 | 37.78711 | -4.64720 | 8915 ft | 278 kts | 111° |
| 2026-05-01 10:07 | 37.77799 | -4.62615 | 8667 ft | 274 kts | 129° |
| 2026-05-01 10:07 | 37.76498 | -4.60861 | 8414 ft | 272 kts | 140° |
| 2026-05-01 10:07 | 37.74960 | -4.59498 | 8165 ft | 270 kts | 155° |
| 2026-05-01 10:08 | 37.71342 | -4.58673 | 7693 ft | 266 kts | 185° |
| 2026-05-01 10:08 | 37.69542 | -4.59170 | 7450 ft | 264 kts | 197° |
| 2026-05-01 10:08 | 37.67788 | -4.59848 | 7212 ft | 264 kts | 196° |
| 2026-05-01 10:09 | 37.66042 | -4.60465 | 6979 ft | 262 kts | 193° |
| 2026-05-01 10:09 | 37.64229 | -4.60618 | 6960 ft | 263 kts | 170° |
| 2026-05-01 10:09 | 37.62507 | -4.59862 | 6968 ft | 265 kts | 152° |
| 2026-05-01 10:09 | 37.60990 | -4.58563 | 6967 ft | 265 kts | 140° |
| 2026-05-01 10:10 | 37.59656 | -4.56961 | 6964 ft | 265 kts | 134° |
| 2026-05-01 10:10 | 37.58430 | -4.55199 | 6969 ft | 265 kts | 130° |
| 2026-05-01 10:10 | 37.56086 | -4.51654 | 6968 ft | 265 kts | 131° |
| 2026-05-01 10:11 | 37.54868 | -4.49911 | 6968 ft | 264 kts | 132° |
| 2026-05-01 10:11 | 37.53629 | -4.48173 | 6972 ft | 264 kts | 133° |
| 2026-05-01 10:11 | 37.52403 | -4.46462 | 6975 ft | 264 kts | 132° |
| 2026-05-01 10:11 | 37.51173 | -4.44745 | 6978 ft | 265 kts | 132° |
| 2026-05-01 10:12 | 37.49938 | -4.43020 | 6981 ft | 264 kts | 132° |
| 2026-05-01 10:12 | 37.48715 | -4.41310 | 6986 ft | 265 kts | 132° |
| 2026-05-01 10:12 | 37.46248 | -4.37862 | 6983 ft | 265 kts | 132° |
| 2026-05-01 10:13 | 37.45008 | -4.36130 | 6982 ft | 265 kts | 132° |
| 2026-05-01 10:13 | 37.43784 | -4.34423 | 6983 ft | 264 kts | 133° |
| 2026-05-01 10:13 | 37.42554 | -4.32708 | 6983 ft | 265 kts | 133° |
| 2026-05-01 10:14 | 37.40080 | -4.29260 | 6987 ft | 265 kts | 133° |
| 2026-05-01 10:14 | 37.38845 | -4.27541 | 6985 ft | 264 kts | 133° |
| 2026-05-01 10:14 | 37.37624 | -4.25840 | 6986 ft | 265 kts | 133° |
| 2026-05-01 10:14 | 37.36387 | -4.24120 | 6985 ft | 265 kts | 133° |
| 2026-05-01 10:15 | 37.35141 | -4.22389 | 6987 ft | 265 kts | 133° |
| 2026-05-01 10:15 | 37.33912 | -4.20681 | 6982 ft | 265 kts | 132° |
| 2026-05-01 10:15 | 37.32672 | -4.18961 | 6986 ft | 265 kts | 132° |
| 2026-05-01 10:15 | 37.31424 | -4.17228 | 6983 ft | 266 kts | 132° |
| 2026-05-01 10:16 | 37.30181 | -4.15504 | 6981 ft | 264 kts | 132° |
| 2026-05-01 10:16 | 37.28968 | -4.13822 | 6984 ft | 260 kts | 132° |
| 2026-05-01 10:16 | 37.26581 | -4.10516 | 6989 ft | 249 kts | 132° |
| 2026-05-01 10:17 | 37.25435 | -4.08929 | 6989 ft | 244 kts | 132° |
| 2026-05-01 10:17 | 37.23212 | -4.05853 | 6982 ft | 232 kts | 132° |
| 2026-05-01 10:17 | 37.22156 | -4.04393 | 6991 ft | 217 kts | 132° |
| 2026-05-01 10:18 | 37.20242 | -4.01747 | 6995 ft | 201 kts | 132° |
| 2026-05-01 10:18 | 37.19146 | -4.00619 | 6993 ft | 204 kts | 156° |
| 2026-05-01 10:18 | 37.17764 | -4.00422 | 6999 ft | 205 kts | 194° |
| 2026-05-01 10:19 | 37.16494 | -4.01208 | 7000 ft | 204 kts | 219° |
| 2026-05-01 10:19 | 37.15581 | -4.02543 | 7000 ft | 205 kts | 245° |
| 2026-05-01 10:19 | 37.15352 | -4.04283 | 7001 ft | 205 kts | 281° |
| 2026-05-01 10:20 | 37.16949 | -4.07126 | 6991 ft | 206 kts | 334° |
| 2026-05-01 10:20 | 37.18345 | -4.07459 | 6871 ft | 207 kts | 9° |
| 2026-05-01 10:20 | 37.19656 | -4.06827 | 6746 ft | 202 kts | 31° |
| 2026-05-01 10:20 | 37.20901 | -4.06022 | 6683 ft | 204 kts | 17° |
| 2026-05-01 10:21 | 37.22305 | -4.06079 | 6631 ft | 207 kts | 335° |
| 2026-05-01 10:21 | 37.24315 | -4.08559 | 6514 ft | 205 kts | 307° |
| 2026-05-01 10:21 | 37.25132 | -4.10006 | 6484 ft | 202 kts | 294° |
| 2026-05-01 10:22 | 37.24943 | -4.13415 | 6486 ft | 202 kts | 242° |
| 2026-05-01 10:22 | 37.22937 | -4.15685 | 6489 ft | 199 kts | 192° |
| 2026-05-01 10:23 | 37.21558 | -4.15820 | 6495 ft | 199 kts | 174° |
| 2026-05-01 10:23 | 37.19207 | -4.14222 | 6505 ft | 200 kts | 125° |
| 2026-05-01 10:23 | 37.18600 | -4.12691 | 6520 ft | 189 kts | 106° |
| 2026-05-01 10:24 | 37.18745 | -4.09590 | 6499 ft | 178 kts | 92° |
| 2026-05-01 10:24 | 37.18621 | -4.06470 | 6048 ft | 183 kts | 90° |